createdAt,value
2016-11-20T00:00:12.265Z,1010.596
2016-11-20T00:03:08.200Z,1010.634
2016-11-20T00:06:04.139Z,1010.606
2016-11-20T00:09:00.067Z,1010.617
2016-11-20T00:11:56.072Z,1010.646
2016-11-20T00:14:52.020Z,1010.613
2016-11-20T00:17:48.132Z,1010.614
2016-11-20T00:20:44.053Z,1010.581
2016-11-20T00:23:40.032Z,1010.551
2016-11-20T00:26:36.051Z,1010.530
2016-11-20T00:29:32.068Z,1010.558
2016-11-20T00:32:28.011Z,1010.596
2016-11-20T00:35:24.010Z,1010.620
2016-11-20T00:38:19.911Z,1010.630
2016-11-20T00:41:16.040Z,1010.618
2016-11-20T00:44:12.139Z,1010.617
2016-11-20T00:47:08.056Z,1010.640
2016-11-20T00:50:03.966Z,1010.652
2016-11-20T00:53:00.106Z,1010.714
2016-11-20T00:55:56.040Z,1010.710
2016-11-20T00:58:52.058Z,1010.758
2016-11-20T01:01:48.101Z,1010.727
2016-11-20T01:04:44.060Z,1010.711
2016-11-20T01:07:40.071Z,1010.718
2016-11-20T01:10:36.333Z,1010.765
2016-11-20T01:13:32.465Z,1010.775
2016-11-20T01:16:28.479Z,1010.824
2016-11-20T01:19:24.492Z,1010.840
2016-11-20T01:22:20.558Z,1010.879
2016-11-20T01:25:16.572Z,1010.805
2016-11-20T01:28:12.646Z,1010.783
2016-11-20T01:31:08.668Z,1010.810
2016-11-20T01:34:04.785Z,1010.848
2016-11-20T01:37:00.797Z,1010.863
2016-11-20T01:39:56.850Z,1010.908
2016-11-20T01:42:52.853Z,1010.931
2016-11-20T01:45:48.884Z,1010.972
2016-11-20T01:48:44.854Z,1010.987
2016-11-20T01:54:36.823Z,1010.935
2016-11-20T01:57:32.886Z,1010.941
2016-11-20T02:00:28.852Z,1010.973
2016-11-20T02:03:24.871Z,1010.983
2016-11-20T02:06:20.828Z,1010.981
2016-11-20T02:09:16.889Z,1010.982
2016-11-20T02:12:12.943Z,1011.010
2016-11-20T02:15:09.152Z,1010.963
2016-11-20T02:18:05.284Z,1010.917
2016-11-20T02:21:01.365Z,1010.907
2016-11-20T02:23:57.438Z,1010.899
2016-11-20T02:26:53.608Z,1010.910
2016-11-20T02:29:49.654Z,1010.866
2016-11-20T02:32:45.790Z,1010.800
2016-11-20T02:35:41.847Z,1010.780
2016-11-20T02:38:37.830Z,1010.834
2016-11-20T02:41:33.962Z,1010.857
2016-11-20T02:44:29.958Z,1010.881
2016-11-20T02:47:25.964Z,1010.823
2016-11-20T02:50:22.118Z,1010.819
2016-11-20T02:53:18.376Z,1010.840
2016-11-20T02:56:14.453Z,1010.825
2016-11-20T02:59:10.548Z,1010.762
2016-11-20T03:02:06.835Z,1010.789
2016-11-20T03:05:02.862Z,1010.779
2016-11-20T03:07:59.128Z,1010.786
2016-11-20T03:10:55.248Z,1010.767
2016-11-20T03:13:51.341Z,1010.757
2016-11-20T03:16:47.531Z,1010.765
2016-11-20T03:19:43.765Z,1010.713
2016-11-20T03:22:39.782Z,1010.771
2016-11-20T03:25:35.940Z,1010.756
2016-11-20T03:28:32.070Z,1010.687
2016-11-20T03:31:28.180Z,1010.658
2016-11-20T03:34:24.210Z,1010.596
2016-11-20T03:37:20.309Z,1010.594
2016-11-20T03:40:16.329Z,1010.603
2016-11-20T03:43:12.550Z,1010.620
2016-11-20T03:46:08.607Z,1010.568
2016-11-20T03:49:04.822Z,1010.519
2016-11-20T03:52:01.198Z,1010.485
2016-11-20T03:54:57.329Z,1010.513
2016-11-20T03:57:53.455Z,1010.582
2016-11-20T04:00:49.655Z,1010.613
2016-11-20T04:03:45.813Z,1010.617
2016-11-20T04:06:41.962Z,1010.665
2016-11-20T04:09:38.114Z,1010.623
2016-11-20T04:12:34.318Z,1010.582
2016-11-20T04:15:30.479Z,1010.629
2016-11-20T04:18:26.746Z,1010.672
2016-11-20T04:21:23.328Z,1010.665
2016-11-20T04:24:19.536Z,1010.705
2016-11-20T04:27:15.654Z,1010.757
2016-11-20T04:30:11.798Z,1010.822
2016-11-20T04:33:07.900Z,1010.843
2016-11-20T04:36:04.076Z,1010.879
2016-11-20T04:39:00.204Z,1010.861
2016-11-20T04:41:56.400Z,1010.844
2016-11-20T04:44:52.603Z,1010.870
2016-11-20T04:47:48.829Z,1010.852
2016-11-20T04:50:44.984Z,1010.854
2016-11-20T04:53:41.836Z,1010.824
2016-11-20T04:56:38.110Z,1010.768
2016-11-20T04:59:34.373Z,1010.800
2016-11-20T05:02:30.536Z,1010.827
2016-11-20T05:05:26.862Z,1010.834
2016-11-20T05:08:23.053Z,1010.785
2016-11-20T05:11:19.294Z,1010.781
2016-11-20T05:14:15.507Z,1010.776
2016-11-20T05:17:11.720Z,1010.821
2016-11-20T05:20:07.934Z,1010.855
2016-11-20T05:23:04.206Z,1010.871
2016-11-20T05:26:00.362Z,1010.803
2016-11-20T05:28:56.647Z,1010.731
2016-11-20T05:31:52.896Z,1010.832
2016-11-20T05:34:49.203Z,1010.811
2016-11-20T05:37:45.407Z,1010.644
2016-11-20T05:40:41.725Z,1010.625
2016-11-20T05:43:38.066Z,1010.570
2016-11-20T05:46:34.309Z,1010.605
2016-11-20T05:49:30.345Z,1010.591
2016-11-20T05:55:22.842Z,1010.475
2016-11-20T05:58:18.952Z,1010.358
2016-11-20T06:01:15.118Z,1010.367
2016-11-20T06:04:11.440Z,1010.384
2016-11-20T06:07:07.699Z,1010.404
2016-11-20T06:10:03.848Z,1010.415
2016-11-20T06:13:00.090Z,1010.435
2016-11-20T06:15:56.307Z,1010.394
2016-11-20T06:18:52.544Z,1010.358
2016-11-20T06:21:48.773Z,1010.358
2016-11-20T06:24:45.094Z,1010.369
2016-11-20T06:27:41.403Z,1010.334
2016-11-20T06:30:37.700Z,1010.325
2016-11-20T06:33:34.001Z,1010.322
2016-11-20T06:36:30.270Z,1010.349
2016-11-20T06:39:26.561Z,1010.297
2016-11-20T06:42:23.428Z,1010.244
2016-11-20T06:45:19.888Z,1010.203
2016-11-20T06:48:16.218Z,1010.216
2016-11-20T06:51:12.504Z,1010.221
2016-11-20T06:54:08.772Z,1010.195
2016-11-20T06:57:05.020Z,1010.205
2016-11-20T07:00:01.365Z,1010.175
2016-11-20T07:02:57.662Z,1010.220
2016-11-20T07:05:54.032Z,1010.276
2016-11-20T07:08:50.382Z,1010.240
2016-11-20T07:11:46.751Z,1010.173
2016-11-20T07:14:43.160Z,1010.094
2016-11-20T07:17:39.475Z,1009.974
2016-11-20T07:20:35.839Z,1009.883
2016-11-20T07:23:32.198Z,1009.951
2016-11-20T07:26:28.604Z,1009.939
2016-11-20T07:29:24.966Z,1009.908
2016-11-20T07:32:21.695Z,1009.824
2016-11-20T07:35:18.049Z,1009.837
2016-11-20T07:38:14.433Z,1009.875
2016-11-20T07:41:10.922Z,1009.812
2016-11-20T07:44:07.395Z,1009.676
2016-11-20T07:47:03.915Z,1009.661
2016-11-20T07:50:00.645Z,1009.520
2016-11-20T07:52:57.542Z,1009.377
2016-11-20T07:55:54.373Z,1009.284
2016-11-20T07:58:51.439Z,1009.221
2016-11-20T08:01:48.451Z,1009.254
2016-11-20T08:04:45.363Z,1009.104
2016-11-20T08:07:42.206Z,1009.072
2016-11-20T08:10:38.910Z,1009.063
2016-11-20T08:13:35.455Z,1009.111
2016-11-20T08:16:32.069Z,1009.026
2016-11-20T08:19:28.955Z,1008.980
2016-11-20T08:22:25.880Z,1008.865
2016-11-20T08:25:22.817Z,1008.614
2016-11-20T08:28:19.802Z,1008.523
2016-11-20T08:31:16.483Z,1008.389
2016-11-20T08:34:13.380Z,1008.292
2016-11-20T08:37:10.271Z,1008.253
2016-11-20T08:40:07.012Z,1008.250
2016-11-20T08:43:03.910Z,1008.072
2016-11-20T08:46:00.778Z,1008.098
2016-11-20T08:48:57.427Z,1008.124
2016-11-20T08:51:54.180Z,1008.243
2016-11-20T08:54:50.667Z,1008.303
2016-11-20T08:57:47.300Z,1008.284
2016-11-20T09:00:43.924Z,1008.238
2016-11-20T09:03:40.655Z,1008.172
2016-11-20T09:06:37.387Z,1007.997
2016-11-20T09:09:34.070Z,1007.809
2016-11-20T09:12:30.648Z,1007.796
2016-11-20T09:15:27.305Z,1007.832
2016-11-20T09:18:23.635Z,1007.798
2016-11-20T09:21:20.089Z,1007.855
2016-11-20T09:24:16.455Z,1007.886
2016-11-20T09:27:13.205Z,1007.962
2016-11-20T09:30:09.761Z,1007.866
2016-11-20T09:33:06.394Z,1007.880
2016-11-20T09:36:02.999Z,1007.745
2016-11-20T09:38:59.880Z,1007.754
2016-11-20T09:41:56.497Z,1007.688
2016-11-20T09:44:53.093Z,1007.683
2016-11-20T09:47:49.646Z,1007.701
2016-11-20T09:50:46.412Z,1007.775
2016-11-20T09:53:43.152Z,1007.744
2016-11-20T09:56:40.117Z,1007.635
2016-11-20T09:59:37.017Z,1007.471
2016-11-20T10:02:33.577Z,1007.357
2016-11-20T10:05:30.134Z,1007.194
2016-11-20T10:08:26.701Z,1007.041
2016-11-20T10:11:23.397Z,1006.820
2016-11-20T10:14:20.072Z,1006.910
2016-11-20T10:17:16.730Z,1006.987
2016-11-20T10:20:13.381Z,1006.956
2016-11-20T10:23:09.987Z,1006.788
2016-11-20T10:26:06.573Z,1006.815
2016-11-20T10:29:03.588Z,1006.706
2016-11-20T10:32:00.252Z,1006.690
2016-11-20T10:34:56.757Z,1006.596
2016-11-20T10:37:53.409Z,1006.445
2016-11-20T10:40:50.016Z,1006.309
2016-11-20T10:43:46.700Z,1006.214
2016-11-20T10:46:43.267Z,1006.247
2016-11-20T10:49:39.974Z,1006.265
2016-11-20T10:52:36.619Z,1006.193
2016-11-20T10:55:33.341Z,1006.093
2016-11-20T10:58:29.980Z,1006.014
2016-11-20T11:01:26.624Z,1005.870
2016-11-20T11:04:23.419Z,1005.883
2016-11-20T11:07:20.011Z,1005.922
2016-11-20T11:10:16.776Z,1005.876
2016-11-20T11:13:13.651Z,1005.767
2016-11-20T11:16:10.336Z,1005.784
2016-11-20T11:19:07.076Z,1005.821
2016-11-20T11:22:03.863Z,1005.746
2016-11-20T11:25:00.581Z,1005.651
2016-11-20T11:27:57.273Z,1005.497
2016-11-20T11:30:54.182Z,1005.433
2016-11-20T11:33:50.812Z,1005.347
2016-11-20T11:36:47.580Z,1005.202
2016-11-20T11:39:44.310Z,1005.025
2016-11-20T11:42:40.993Z,1004.982
2016-11-20T11:45:37.618Z,1005.035
2016-11-20T11:48:34.394Z,1005.036
2016-11-20T11:51:31.079Z,1004.978
2016-11-20T11:54:27.875Z,1004.963
2016-11-20T11:57:24.635Z,1004.858
2016-11-20T12:00:21.373Z,1004.761
2016-11-20T12:03:18.204Z,1004.730
2016-11-20T12:06:14.927Z,1004.718
2016-11-20T12:09:11.699Z,1004.652
2016-11-20T12:12:08.388Z,1004.592
2016-11-20T12:15:05.456Z,1004.707
2016-11-20T12:18:02.288Z,1004.570
2016-11-20T12:20:58.995Z,1004.508
2016-11-20T12:23:55.793Z,1004.533
2016-11-20T12:26:52.514Z,1004.454
2016-11-20T12:29:49.351Z,1004.469
2016-11-20T13:17:40.075Z,1003.916
2016-11-20T13:20:31.165Z,1003.776
2016-11-20T13:23:26.604Z,1003.657
2016-11-20T13:26:22.028Z,1003.738
2016-11-20T13:29:17.504Z,1003.742
2016-11-20T13:32:12.890Z,1003.634
2016-11-20T13:35:08.400Z,1003.664
2016-11-20T13:38:04.109Z,1003.615
2016-11-20T13:40:59.644Z,1003.570
2016-11-20T13:43:55.196Z,1003.549
2016-11-20T13:46:51.216Z,1003.524
2016-11-20T13:49:46.610Z,1003.511
2016-11-20T13:52:42.299Z,1003.448
2016-11-20T13:55:37.776Z,1003.441
2016-11-20T13:58:33.536Z,1003.343
2016-11-20T14:01:29.102Z,1003.396
2016-11-20T14:04:24.814Z,1003.307
2016-11-20T14:07:20.460Z,1003.312
2016-11-20T14:10:15.999Z,1003.237
2016-11-20T14:13:11.627Z,1003.159
2016-11-20T14:16:07.160Z,1003.181
2016-11-20T14:19:02.878Z,1003.253
2016-11-20T14:21:58.636Z,1003.259
2016-11-20T14:24:54.324Z,1003.205
2016-11-20T14:27:49.962Z,1003.167
2016-11-20T14:30:45.580Z,1003.199
2016-11-20T14:33:41.359Z,1003.213
2016-11-20T14:36:37.100Z,1003.190
2016-11-20T14:39:32.657Z,1003.009
2016-11-20T14:42:28.420Z,1003.036
2016-11-20T14:45:24.205Z,1002.945
2016-11-20T14:48:19.828Z,1002.981
2016-11-20T14:51:15.516Z,1002.931
2016-11-20T14:54:11.146Z,1002.934
2016-11-20T14:57:06.796Z,1003.158
2016-11-20T15:00:02.447Z,1003.125
2016-11-20T15:02:58.125Z,1003.259
2016-11-20T15:05:53.935Z,1003.212
2016-11-20T15:08:49.685Z,1003.221
2016-11-20T15:11:45.330Z,1003.223
2016-11-20T15:14:41.053Z,1003.335
2016-11-20T15:17:36.693Z,1003.202
2016-11-20T15:20:32.447Z,1003.168
2016-11-20T15:23:28.149Z,1003.172
2016-11-20T15:26:23.881Z,1003.055
2016-11-20T15:29:19.546Z,1003.207
2016-11-20T15:32:15.194Z,1003.081
2016-11-20T15:35:10.888Z,1003.101
2016-11-20T15:38:06.617Z,1003.236
2016-11-20T15:41:02.284Z,1003.149
2016-11-20T15:43:57.989Z,1003.159
2016-11-20T15:46:53.613Z,1003.087
2016-11-20T15:49:49.347Z,1003.139
2016-11-20T15:52:44.970Z,1003.324
2016-11-20T15:55:40.875Z,1003.362
2016-11-20T15:58:36.551Z,1003.442
2016-11-20T16:01:32.251Z,1003.548
2016-11-20T16:04:27.912Z,1003.589
2016-11-20T16:07:23.669Z,1003.492
2016-11-20T16:10:19.373Z,1003.457
2016-11-20T16:13:15.121Z,1003.502
2016-11-20T16:16:10.901Z,1003.507
2016-11-20T16:19:06.552Z,1003.504
2016-11-20T16:22:02.404Z,1003.611
2016-11-20T16:24:58.165Z,1003.643
2016-11-20T16:27:53.850Z,1003.664
2016-11-20T16:30:49.567Z,1003.860
2016-11-20T16:33:45.271Z,1003.774
2016-11-20T16:36:41.152Z,1003.764
2016-11-20T16:39:36.866Z,1003.762
2016-11-20T16:42:32.628Z,1003.884
2016-11-20T16:45:28.532Z,1004.167
2016-11-20T16:48:24.377Z,1004.235
2016-11-20T16:51:20.187Z,1004.354
2016-11-20T16:54:15.967Z,1004.331
2016-11-20T16:57:11.774Z,1004.332
2016-11-20T17:00:07.541Z,1004.365
2016-11-20T17:03:03.400Z,1004.423
2016-11-20T17:05:59.277Z,1004.411
2016-11-20T17:08:55.092Z,1004.526
2016-11-20T17:11:50.990Z,1004.549
2016-11-20T17:14:46.727Z,1004.500
2016-11-20T17:17:42.606Z,1004.516
2016-11-20T17:20:38.448Z,1004.522
2016-11-20T17:23:34.311Z,1004.527
2016-11-20T17:26:30.221Z,1004.607
2016-11-20T17:29:26.113Z,1004.579
2016-11-20T17:32:21.949Z,1004.525
2016-11-20T17:35:17.841Z,1004.516
2016-11-20T17:38:13.794Z,1004.485
2016-11-20T17:41:09.604Z,1004.436
2016-11-20T17:44:05.459Z,1004.437
2016-11-20T17:47:01.480Z,1004.552
2016-11-20T17:49:57.498Z,1004.595
2016-11-20T17:52:53.387Z,1004.509
2016-11-20T17:55:49.382Z,1004.535
2016-11-20T17:58:45.218Z,1004.551
2016-11-20T18:01:41.439Z,1004.663
2016-11-20T18:04:37.388Z,1004.738
2016-11-20T18:07:33.378Z,1004.772
2016-11-20T18:10:29.252Z,1004.774
2016-11-20T18:13:25.197Z,1004.917
2016-11-20T18:16:21.125Z,1004.933
2016-11-20T18:19:16.937Z,1005.019
2016-11-20T18:22:12.951Z,1004.970
2016-11-20T18:25:08.841Z,1005.050
2016-11-20T18:28:04.807Z,1004.934
2016-11-20T18:31:00.708Z,1004.999
2016-11-20T18:33:56.645Z,1005.062
2016-11-20T18:36:52.556Z,1005.039
2016-11-20T18:39:48.419Z,1005.135
2016-11-20T18:42:44.319Z,1004.996
2016-11-20T18:45:40.252Z,1004.990
2016-11-20T18:48:36.120Z,1004.975
2016-11-20T18:51:32.040Z,1005.033
2016-11-20T18:54:27.878Z,1005.186
2016-11-20T18:57:23.813Z,1005.437
2016-11-20T19:00:19.718Z,1005.406
2016-11-20T19:03:15.671Z,1005.519
2016-11-20T19:06:11.611Z,1005.542
2016-11-20T19:09:07.565Z,1005.480
2016-11-20T19:12:03.411Z,1005.521
2016-11-20T19:14:59.360Z,1005.575
2016-11-20T19:17:55.243Z,1005.621
2016-11-20T19:20:51.153Z,1005.753
2016-11-20T19:23:47.052Z,1005.795
2016-11-20T19:26:42.986Z,1005.722
2016-11-20T19:29:38.938Z,1005.685
2016-11-20T19:32:34.960Z,1005.611
2016-11-20T19:35:30.713Z,1005.609
2016-11-20T19:38:26.655Z,1005.612
2016-11-20T19:41:22.524Z,1005.708
2016-11-20T19:44:18.564Z,1005.761
2016-11-20T19:47:14.360Z,1005.787
2016-11-20T19:50:10.323Z,1005.783
2016-11-20T19:53:06.321Z,1005.844
2016-11-20T19:56:02.215Z,1005.883
2016-11-20T19:58:58.116Z,1005.924
2016-11-20T20:01:53.955Z,1005.998
2016-11-20T20:04:49.858Z,1005.940
2016-11-20T20:07:45.793Z,1006.006
2016-11-20T20:10:41.625Z,1006.056
2016-11-20T20:13:37.477Z,1006.182
2016-11-20T20:16:33.313Z,1006.132
2016-11-20T20:19:29.312Z,1006.248
2016-11-20T20:22:25.276Z,1006.124
2016-11-20T20:25:21.204Z,1006.135
2016-11-20T20:28:17.102Z,1006.205
2016-11-20T20:31:13.031Z,1006.126
2016-11-20T20:34:09.058Z,1006.151
2016-11-20T20:37:05.080Z,1006.200
2016-11-20T20:40:00.972Z,1006.209
2016-11-20T20:42:56.980Z,1006.270
2016-11-20T20:45:52.900Z,1006.193
2016-11-20T20:48:48.835Z,1006.213
2016-11-20T20:51:44.828Z,1006.258
2016-11-20T20:54:40.792Z,1006.282
2016-11-20T20:57:36.716Z,1006.319
2016-11-20T21:00:32.734Z,1006.307
2016-11-20T21:03:28.680Z,1006.310
2016-11-20T21:06:24.682Z,1006.367
2016-11-20T21:09:20.541Z,1006.429
2016-11-20T21:12:16.415Z,1006.405
2016-11-20T21:15:12.592Z,1006.462
2016-11-20T21:18:08.752Z,1006.531
2016-11-20T21:21:04.805Z,1006.652
2016-11-20T21:24:00.867Z,1006.688
2016-11-20T21:26:56.807Z,1006.702
2016-11-20T21:29:52.831Z,1006.753
2016-11-20T21:32:48.807Z,1006.763
2016-11-20T21:35:44.856Z,1006.814
2016-11-20T21:38:40.803Z,1006.816
2016-11-20T21:41:36.871Z,1006.881
2016-11-20T21:44:32.919Z,1006.947
2016-11-20T21:47:28.940Z,1006.922
2016-11-20T21:50:25.042Z,1006.937
2016-11-20T21:53:20.934Z,1006.932
2016-11-20T21:56:16.911Z,1006.969
2016-11-20T21:59:12.865Z,1006.963
2016-11-20T22:02:08.939Z,1006.925
2016-11-20T22:05:04.908Z,1006.962
2016-11-20T22:08:00.916Z,1006.962
2016-11-20T22:10:56.965Z,1006.960
2016-11-20T22:13:53.103Z,1006.994
2016-11-20T22:16:49.194Z,1006.954
2016-11-20T22:19:45.207Z,1006.942
2016-11-20T22:22:41.230Z,1006.964
2016-11-20T22:25:37.152Z,1006.993
2016-11-20T22:28:33.121Z,1007.021
2016-11-20T22:31:29.136Z,1007.028
2016-11-20T22:34:25.184Z,1007.057
2016-11-20T22:37:21.172Z,1007.153
2016-11-20T22:40:17.517Z,1007.152
2016-11-20T22:43:13.568Z,1007.144
2016-11-20T22:46:09.532Z,1007.143
2016-11-20T22:49:05.565Z,1007.189
2016-11-20T22:52:01.681Z,1007.150
2016-11-20T22:54:57.765Z,1007.167
2016-11-20T22:57:53.936Z,1007.215
2016-11-20T23:00:50.429Z,1007.199
2016-11-20T23:03:46.547Z,1007.223
2016-11-20T23:06:42.611Z,1007.291
2016-11-20T23:09:38.670Z,1007.296
2016-11-20T23:12:34.666Z,1007.325
2016-11-20T23:15:30.794Z,1007.325
2016-11-20T23:18:26.877Z,1007.373
2016-11-20T23:21:23.021Z,1007.302
2016-11-20T23:24:19.178Z,1007.357
2016-11-20T23:27:15.270Z,1007.380
2016-11-20T23:30:11.287Z,1007.323
2016-11-20T23:33:07.327Z,1007.333
2016-11-20T23:36:03.364Z,1007.316
2016-11-20T23:38:59.477Z,1007.334
2016-11-20T23:41:55.522Z,1007.364
2016-11-20T23:44:51.692Z,1007.345
2016-11-20T23:47:47.705Z,1007.365
2016-11-20T23:50:43.887Z,1007.418
2016-11-20T23:53:39.999Z,1007.425
2016-11-20T23:56:36.185Z,1007.461
2016-11-20T23:59:32.120Z,1007.404
